Ayers, Illinois
Current Conditions -  °F | °C
As of 2:55 AM on Wednesday 28 Jan 2015 (Local Time) from K3LF Reporting Station
Haze Haze  
Wind Chill: 18°   Ceiling: Unl
Heat Index: 25°   Visibility: 5mi
Dew Point: 22°   Wind: 6mph
Humidity: 89%   Direction: 130°SE
Pressure: 30.25"   Gusts: NA
Location:  38.895°N, 89.397°W
Report Text: K3LF 280855Z AUTO 13005KT 5SM BR CLR M04/M05 A3025 RMK AO2 T10391054
Loading
Personal Weather Stations






























Interactive Weather Map New forecast layout! Learn more

10-Day Weather Forecast

Advertisements
Track Severe Weather on mobile